Columbus, Ohio
Traffic Map
Current Weather Conditions
Columbus, Ohio
Overcast
Overcast
34°
Feels Like: 29°
Wind Chill: 29° Ceiling: 5500
Heat Index: 34° Visibility: 10mi
Dew Point: 21° Wind: 6mph
Humidity: 60% Direction: 150° (SSE)
Pressure: 30.21in Gusts: 0mph
Raw Report DataKCMH 010407Z 15005KT 10SM FEW028 OVC055 01/M06 A3021 RMK AO2
Traffic Incident Summary
Active as of:
Severity:
Category:
InformationThere was an issue retrieving the traffic information for this location. Please try a different location or try again shortly.
Advertisements
Track Severe Weather on mobile